sensor_id;sensor_type;location;lat;lon;timestamp;temperature;humidity
9385;DHT22;4732;49.340;10.886;2024-03-02T04:01:40;4.40;99.90
9385;DHT22;4732;49.340;10.886;2024-03-02T04:04:06;4.40;99.90
9385;DHT22;4732;49.340;10.886;2024-03-02T04:06:32;4.20;99.90
9385;DHT22;4732;49.340;10.886;2024-03-02T04:09:01;4.50;99.90
9385;DHT22;4732;49.340;10.886;2024-03-02T04:11:29;4.30;99.90
9385;DHT22;4732;49.340;10.886;2024-03-02T04:13:57;4.40;99.90
9385;DHT22;4732;49.340;10.886;2024-03-02T04:16:22;5.00;99.90
9385;DHT22;4732;49.340;10.886;2024-03-02T04:18:48;4.50;99.90
9385;DHT22;4732;49.340;10.886;2024-03-02T04:21:13;4.40;99.90
9385;DHT22;4732;49.340;10.886;2024-03-02T04:23:39;4.30;99.90
9385;DHT22;4732;49.340;10.886;2024-03-02T04:26:04;4.10;99.90
9385;DHT22;4732;49.340;10.886;2024-03-02T04:28:30;4.00;99.90
9385;DHT22;4732;49.340;10.886;2024-03-02T04:30:55;3.90;99.90
9385;DHT22;4732;49.340;10.886;2024-03-02T04:33:21;3.70;99.90
9385;DHT22;4732;49.340;10.886;2024-03-02T04:35:47;3.80;99.90
9385;DHT22;4732;49.340;10.886;2024-03-02T04:38:12;3.60;99.90
9385;DHT22;4732;49.340;10.886;2024-03-02T04:40:38;3.90;99.90
9385;DHT22;4732;49.340;10.886;2024-03-02T04:43:03;4.00;99.90
9385;DHT22;4732;49.340;10.886;2024-03-02T04:45:29;3.80;99.90
9385;DHT22;4732;49.340;10.886;2024-03-02T04:47:54;3.90;99.90
9385;DHT22;4732;49.340;10.886;2024-03-02T04:50:20;3.90;99.90
9385;DHT22;4732;49.340;10.886;2024-03-02T04:52:45;4.00;99.90
9385;DHT22;4732;49.340;10.886;2024-03-02T04:55:11;3.80;99.90
9385;DHT22;4732;49.340;10.886;2024-03-02T04:58:15;4.00;99.90
9385;DHT22;4732;49.340;10.886;2024-03-02T05:00:40;4.30;99.90
9385;DHT22;4732;49.340;10.886;2024-03-02T05:03:08;4.00;99.90
9385;DHT22;4732;49.340;10.886;2024-03-02T05:05:33;4.30;99.90
9385;DHT22;4732;49.340;10.886;2024-03-02T05:08:00;4.50;99.90
9385;DHT22;4732;49.340;10.886;2024-03-02T05:10:26;4.50;99.90
9385;DHT22;4732;49.340;10.886;2024-03-02T05:12:51;4.60;99.90
9385;DHT22;4732;49.340;10.886;2024-03-02T05:15:22;4.70;99.90
9385;DHT22;4732;49.340;10.886;2024-03-02T05:17:48;4.80;99.90
9385;DHT22;4732;49.340;10.886;2024-03-02T05:20:13;5.00;99.90
9385;DHT22;4732;49.340;10.886;2024-03-02T05:22:39;4.90;99.90
9385;DHT22;4732;49.340;10.886;2024-03-02T05:25:06;4.90;99.90
9385;DHT22;4732;49.340;10.886;2024-03-02T05:27:32;5.00;99.90
9385;DHT22;4732;49.340;10.886;2024-03-02T05:29:58;4.90;99.90
9385;DHT22;4732;49.340;10.886;2024-03-02T05:32:24;5.00;99.90
9385;DHT22;4732;49.340;10.886;2024-03-02T05:34:49;4.70;99.90
9385;DHT22;4732;49.340;10.886;2024-03-02T05:37:16;4.70;99.90
9385;DHT22;4732;49.340;10.886;2024-03-02T05:39:42;4.70;99.90
9385;DHT22;4732;49.340;10.886;2024-03-02T05:42:09;4.70;99.90
9385;DHT22;4732;49.340;10.886;2024-03-02T05:44:38;4.70;99.90
9385;DHT22;4732;49.340;10.886;2024-03-02T05:47:03;4.70;99.90
9385;DHT22;4732;49.340;10.886;2024-03-02T05:49:29;4.70;99.90
9385;DHT22;4732;49.340;10.886;2024-03-02T05:51:55;4.60;99.90
9385;DHT22;4732;49.340;10.886;2024-03-02T05:54:20;4.40;99.90
9385;DHT22;4732;49.340;10.886;2024-03-02T05:56:46;4.50;99.90
9385;DHT22;4732;49.340;10.886;2024-03-02T05:59:12;4.40;99.90
9385;DHT22;4732;49.340;10.886;2024-03-02T06:01:45;4.60;99.90
9385;DHT22;4732;49.340;10.886;2024-03-02T06:04:14;4.60;99.90
9385;DHT22;4732;49.340;10.886;2024-03-02T06:06:40;4.50;99.90
9385;DHT22;4732;49.340;10.886;2024-03-02T06:09:06;4.30;99.90
9385;DHT22;4732;49.340;10.886;2024-03-02T06:11:41;4.40;99.90
9385;DHT22;4732;49.340;10.886;2024-03-02T06:14:08;4.30;99.90
9385;DHT22;4732;49.340;10.886;2024-03-02T06:16:34;4.20;99.90
9385;DHT22;4732;49.340;10.886;2024-03-02T06:19:00;4.30;99.90
9385;DHT22;4732;49.340;10.886;2024-03-02T06:21:26;4.40;99.90
9385;DHT22;4732;49.340;10.886;2024-03-02T06:23:53;3.90;99.90
9385;DHT22;4732;49.340;10.886;2024-03-02T06:26:19;4.60;99.90
9385;DHT22;4732;49.340;10.886;2024-03-02T06:28:45;4.20;99.90
9385;DHT22;4732;49.340;10.886;2024-03-02T06:31:11;4.60;99.90
9385;DHT22;4732;49.340;10.886;2024-03-02T06:33:37;5.70;99.90
9385;DHT22;4732;49.340;10.886;2024-03-02T06:36:03;4.50;99.90
9385;DHT22;4732;49.340;10.886;2024-03-02T06:38:29;4.60;99.90
9385;DHT22;4732;49.340;10.886;2024-03-02T06:40:57;4.70;99.90
9385;DHT22;4732;49.340;10.886;2024-03-02T06:43:23;4.40;99.90
9385;DHT22;4732;49.340;10.886;2024-03-02T06:45:49;4.20;99.90
9385;DHT22;4732;49.340;10.886;2024-03-02T06:48:16;4.20;99.90
9385;DHT22;4732;49.340;10.886;2024-03-02T06:50:48;4.40;99.90
9385;DHT22;4732;49.340;10.886;2024-03-02T06:53:14;4.50;99.90
9385;DHT22;4732;49.340;10.886;2024-03-02T06:55:42;4.60;99.90
9385;DHT22;4732;49.340;10.886;2024-03-02T06:58:08;4.60;99.90
9385;DHT22;4732;49.340;10.886;2024-03-02T07:00:33;4.60;99.90
9385;DHT22;4732;49.340;10.886;2024-03-02T07:02:59;4.70;99.90
9385;DHT22;4732;49.340;10.886;2024-03-02T07:05:24;5.30;99.90
9385;DHT22;4732;49.340;10.886;2024-03-02T07:07:50;5.40;99.90
9385;DHT22;4732;49.340;10.886;2024-03-02T07:10:16;5.00;99.90
9385;DHT22;4732;49.340;10.886;2024-03-02T07:12:41;5.40;99.90
9385;DHT22;4732;49.340;10.886;2024-03-02T07:15:07;5.00;99.90
9385;DHT22;4732;49.340;10.886;2024-03-02T07:17:44;5.30;99.90
9385;DHT22;4732;49.340;10.886;2024-03-02T07:20:09;5.10;99.90
9385;DHT22;4732;49.340;10.886;2024-03-02T07:22:37;5.40;99.90
9385;DHT22;4732;49.340;10.886;2024-03-02T07:25:03;5.20;99.90
9385;DHT22;4732;49.340;10.886;2024-03-02T07:27:30;5.50;99.90
9385;DHT22;4732;49.340;10.886;2024-03-02T07:29:56;5.30;99.90
9385;DHT22;4732;49.340;10.886;2024-03-02T07:32:22;5.40;99.90
9385;DHT22;4732;49.340;10.886;2024-03-02T07:34:47;5.50;99.90
9385;DHT22;4732;49.340;10.886;2024-03-02T07:37:13;6.00;99.90
9385;DHT22;4732;49.340;10.886;2024-03-02T07:39:39;6.60;99.90
9385;DHT22;4732;49.340;10.886;2024-03-02T07:42:04;6.10;99.90
9385;DHT22;4732;49.340;10.886;2024-03-02T07:44:31;6.00;99.90
9385;DHT22;4732;49.340;10.886;2024-03-02T07:46:57;6.00;99.90
9385;DHT22;4732;49.340;10.886;2024-03-02T07:49:22;6.00;99.90
9385;DHT22;4732;49.340;10.886;2024-03-02T07:51:48;6.10;99.90
9385;DHT22;4732;49.340;10.886;2024-03-02T07:54:13;6.20;99.90
9385;DHT22;4732;49.340;10.886;2024-03-02T07:56:39;6.40;99.90
9385;DHT22;4732;49.340;10.886;2024-03-02T07:59:05;6.30;99.90
9385;DHT22;4732;49.340;10.886;2024-03-02T08:01:32;6.40;99.90
9385;DHT22;4732;49.340;10.886;2024-03-02T08:03:59;6.40;99.90
9385;DHT22;4732;49.340;10.886;2024-03-02T08:08:56;6.80;99.90
9385;DHT22;4732;49.340;10.886;2024-03-02T08:13:48;7.10;99.90
9385;DHT22;4732;49.340;10.886;2024-03-02T08:16:17;7.00;99.90
9385;DHT22;4732;49.340;10.886;2024-03-02T08:18:47;6.90;99.90
9385;DHT22;4732;49.340;10.886;2024-03-02T08:21:13;7.50;99.90
9385;DHT22;4732;49.340;10.886;2024-03-02T08:23:40;7.60;99.90
9385;DHT22;4732;49.340;10.886;2024-03-02T08:26:07;7.90;99.90
9385;DHT22;4732;49.340;10.886;2024-03-02T08:28:33;7.80;99.90
9385;DHT22;4732;49.340;10.886;2024-03-02T08:30:59;8.00;99.90
9385;DHT22;4732;49.340;10.886;2024-03-02T08:33:24;8.20;99.90
9385;DHT22;4732;49.340;10.886;2024-03-02T08:35:50;8.10;99.90
9385;DHT22;4732;49.340;10.886;2024-03-02T08:40:42;8.70;99.90
9385;DHT22;4732;49.340;10.886;2024-03-02T08:43:07;8.60;99.90
9385;DHT22;4732;49.340;10.886;2024-03-02T08:45:33;8.60;99.90
9385;DHT22;4732;49.340;10.886;2024-03-02T08:48:34;8.60;99.90
9385;DHT22;4732;49.340;10.886;2024-03-02T08:52:03;9.10;99.90
9385;DHT22;4732;49.340;10.886;2024-03-02T08:54:29;8.70;99.90
9385;DHT22;4732;49.340;10.886;2024-03-02T08:56:55;8.50;99.90
9385;DHT22;4732;49.340;10.886;2024-03-02T08:59:20;8.60;99.90
9385;DHT22;4732;49.340;10.886;2024-03-02T09:01:46;8.60;99.90
9385;DHT22;4732;49.340;10.886;2024-03-02T09:04:11;8.70;99.90
9385;DHT22;4732;49.340;10.886;2024-03-02T09:06:37;8.70;99.90
9385;DHT22;4732;49.340;10.886;2024-03-02T09:09:03;8.60;99.90
9385;DHT22;4732;49.340;10.886;2024-03-02T09:11:29;8.70;99.90
9385;DHT22;4732;49.340;10.886;2024-03-02T09:13:55;8.70;99.90
9385;DHT22;4732;49.340;10.886;2024-03-02T09:16:24;8.90;99.90
9385;DHT22;4732;49.340;10.886;2024-03-02T09:18:56;8.90;99.90
9385;DHT22;4732;49.340;10.886;2024-03-02T09:21:42;9.80;99.90
9385;DHT22;4732;49.340;10.886;2024-03-02T09:24:12;9.20;99.90
9385;DHT22;4732;49.340;10.886;2024-03-02T09:26:41;9.40;99.90
9385;DHT22;4732;49.340;10.886;2024-03-02T09:29:06;8.90;99.90
9385;DHT22;4732;49.340;10.886;2024-03-02T09:31:55;9.80;99.90
9385;DHT22;4732;49.340;10.886;2024-03-02T09:34:21;9.80;99.90
9385;DHT22;4732;49.340;10.886;2024-03-02T09:36:47;9.10;99.90
9385;DHT22;4732;49.340;10.886;2024-03-02T09:39:13;9.20;99.90
9385;DHT22;4732;49.340;10.886;2024-03-02T09:41:39;9.30;99.90
9385;DHT22;4732;49.340;10.886;2024-03-02T09:44:05;9.30;99.90
9385;DHT22;4732;49.340;10.886;2024-03-02T09:46:31;9.40;99.90
9385;DHT22;4732;49.340;10.886;2024-03-02T09:48:57;9.40;99.90
9385;DHT22;4732;49.340;10.886;2024-03-02T09:51:23;9.50;99.90
9385;DHT22;4732;49.340;10.886;2024-03-02T09:53:49;9.50;99.90
9385;DHT22;4732;49.340;10.886;2024-03-02T09:56:15;9.50;99.90
9385;DHT22;4732;49.340;10.886;2024-03-02T09:58:46;9.60;99.90
9385;DHT22;4732;49.340;10.886;2024-03-02T10:01:12;9.70;99.90
9385;DHT22;4732;49.340;10.886;2024-03-02T10:03:38;9.70;99.90
9385;DHT22;4732;49.340;10.886;2024-03-02T10:06:24;9.70;99.90
9385;DHT22;4732;49.340;10.886;2024-03-02T10:08:50;9.80;99.90
9385;DHT22;4732;49.340;10.886;2024-03-02T10:11:26;9.80;99.90
9385;DHT22;4732;49.340;10.886;2024-03-02T10:14:07;10.00;99.90
9385;DHT22;4732;49.340;10.886;2024-03-02T10:16:34;10.00;99.90
9385;DHT22;4732;49.340;10.886;2024-03-02T10:21:40;10.00;99.90
9385;DHT22;4732;49.340;10.886;2024-03-02T10:24:07;10.00;99.90
9385;DHT22;4732;49.340;10.886;2024-03-02T10:26:33;10.20;99.90
9385;DHT22;4732;49.340;10.886;2024-03-02T10:28:58;10.20;99.90
9385;DHT22;4732;49.340;10.886;2024-03-02T10:31:25;10.20;99.90
9385;DHT22;4732;49.340;10.886;2024-03-02T10:33:54;10.30;99.90
9385;DHT22;4732;49.340;10.886;2024-03-02T10:36:20;10.30;99.90
9385;DHT22;4732;49.340;10.886;2024-03-02T10:38:46;10.40;99.90
9385;DHT22;4732;49.340;10.886;2024-03-02T10:41:17;10.50;99.90
9385;DHT22;4732;49.340;10.886;2024-03-02T10:43:44;10.60;99.90
9385;DHT22;4732;49.340;10.886;2024-03-02T10:46:10;10.70;99.90
9385;DHT22;4732;49.340;10.886;2024-03-02T10:48:37;10.80;99.90
9385;DHT22;4732;49.340;10.886;2024-03-02T10:51:04;10.90;99.90
9385;DHT22;4732;49.340;10.886;2024-03-02T10:53:30;11.00;99.90
9385;DHT22;4732;49.340;10.886;2024-03-02T10:55:58;11.10;99.90
9385;DHT22;4732;49.340;10.886;2024-03-02T10:58:31;11.20;99.90
9385;DHT22;4732;49.340;10.886;2024-03-02T11:01:02;11.40;99.90
9385;DHT22;4732;49.340;10.886;2024-03-02T11:03:30;11.50;99.90
9385;DHT22;4732;49.340;10.886;2024-03-02T11:05:59;11.50;99.90
9385;DHT22;4732;49.340;10.886;2024-03-02T11:08:27;11.50;99.90
9385;DHT22;4732;49.340;10.886;2024-03-02T11:11:10;11.70;99.90
9385;DHT22;4732;49.340;10.886;2024-03-02T11:13:40;11.70;99.90
9385;DHT22;4732;49.340;10.886;2024-03-02T11:16:12;11.80;99.90
9385;DHT22;4732;49.340;10.886;2024-03-02T11:18:42;11.90;99.90
9385;DHT22;4732;49.340;10.886;2024-03-02T11:21:08;12.00;99.90
9385;DHT22;4732;49.340;10.886;2024-03-02T11:23:34;12.10;99.90
9385;DHT22;4732;49.340;10.886;2024-03-02T11:26:20;12.10;99.90
9385;DHT22;4732;49.340;10.886;2024-03-02T11:28:46;12.10;99.90
9385;DHT22;4732;49.340;10.886;2024-03-02T11:31:11;12.20;99.90
9385;DHT22;4732;49.340;10.886;2024-03-02T11:33:37;12.30;99.90
9385;DHT22;4732;49.340;10.886;2024-03-02T11:36:03;12.40;99.90
9385;DHT22;4732;49.340;10.886;2024-03-02T11:38:33;12.40;99.90
9385;DHT22;4732;49.340;10.886;2024-03-02T11:41:00;12.50;99.90
9385;DHT22;4732;49.340;10.886;2024-03-02T11:43:30;12.60;99.90
9385;DHT22;4732;49.340;10.886;2024-03-02T11:46:00;12.70;99.90
9385;DHT22;4732;49.340;10.886;2024-03-02T11:48:26;12.80;99.90
9385;DHT22;4732;49.340;10.886;2024-03-02T11:50:52;12.90;99.90
9385;DHT22;4732;49.340;10.886;2024-03-02T11:53:19;13.10;99.90
9385;DHT22;4732;49.340;10.886;2024-03-02T11:55:45;13.10;99.90
9385;DHT22;4732;49.340;10.886;2024-03-02T11:58:14;13.10;99.90
9385;DHT22;4732;49.340;10.886;2024-03-02T12:00:40;13.10;99.90
9385;DHT22;4732;49.340;10.886;2024-03-02T12:03:09;13.20;99.90
9385;DHT22;4732;49.340;10.886;2024-03-02T12:05:35;13.20;99.90
9385;DHT22;4732;49.340;10.886;2024-03-02T12:08:03;13.30;99.90
9385;DHT22;4732;49.340;10.886;2024-03-02T12:10:31;13.40;99.90
9385;DHT22;4732;49.340;10.886;2024-03-02T12:12:57;13.60;99.90
9385;DHT22;4732;49.340;10.886;2024-03-02T12:15:27;13.50;99.90
9385;DHT22;4732;49.340;10.886;2024-03-02T12:17:54;13.30;99.90
9385;DHT22;4732;49.340;10.886;2024-03-02T12:20:20;13.30;99.90
9385;DHT22;4732;49.340;10.886;2024-03-02T12:22:46;13.20;99.90
9385;DHT22;4732;49.340;10.886;2024-03-02T12:25:11;13.10;99.90
9385;DHT22;4732;49.340;10.886;2024-03-02T12:27:39;13.20;99.90
9385;DHT22;4732;49.340;10.886;2024-03-02T12:30:05;13.20;99.90
9385;DHT22;4732;49.340;10.886;2024-03-02T12:32:33;13.20;99.90
9385;DHT22;4732;49.340;10.886;2024-03-02T12:34:59;13.30;99.90
9385;DHT22;4732;49.340;10.886;2024-03-02T12:37:26;13.10;99.90
9385;DHT22;4732;49.340;10.886;2024-03-02T12:39:53;12.90;99.90
9385;DHT22;4732;49.340;10.886;2024-03-02T12:42:18;12.70;99.90
9385;DHT22;4732;49.340;10.886;2024-03-02T12:44:43;12.70;99.90
9385;DHT22;4732;49.340;10.886;2024-03-02T12:47:09;12.80;99.90
9385;DHT22;4732;49.340;10.886;2024-03-02T12:49:35;13.10;99.90
9385;DHT22;4732;49.340;10.886;2024-03-02T12:52:00;13.20;99.90
9385;DHT22;4732;49.340;10.886;2024-03-02T12:54:27;13.40;99.90
9385;DHT22;4732;49.340;10.886;2024-03-02T12:56:53;13.60;99.90
9385;DHT22;4732;49.340;10.886;2024-03-02T12:59:20;13.70;99.90
9385;DHT22;4732;49.340;10.886;2024-03-02T13:01:53;13.60;99.90
9385;DHT22;4732;49.340;10.886;2024-03-02T13:04:24;13.70;99.90
9385;DHT22;4732;49.340;10.886;2024-03-02T13:06:50;13.80;99.90
9385;DHT22;4732;49.340;10.886;2024-03-02T13:09:17;13.80;99.90
9385;DHT22;4732;49.340;10.886;2024-03-02T13:11:42;13.70;99.90
9385;DHT22;4732;49.340;10.886;2024-03-02T13:14:10;13.70;99.90
9385;DHT22;4732;49.340;10.886;2024-03-02T13:16:42;13.60;99.90
9385;DHT22;4732;49.340;10.886;2024-03-02T13:19:08;13.70;99.90
9385;DHT22;4732;49.340;10.886;2024-03-02T13:21:34;13.70;99.90
9385;DHT22;4732;49.340;10.886;2024-03-02T13:24:00;13.90;99.90
9385;DHT22;4732;49.340;10.886;2024-03-02T13:26:26;13.90;99.90
9385;DHT22;4732;49.340;10.886;2024-03-02T13:28:52;13.90;99.90
9385;DHT22;4732;49.340;10.886;2024-03-02T13:31:17;14.00;99.90
9385;DHT22;4732;49.340;10.886;2024-03-02T13:33:43;14.10;99.90
9385;DHT22;4732;49.340;10.886;2024-03-02T13:36:08;14.10;99.90
9385;DHT22;4732;49.340;10.886;2024-03-02T13:38:34;14.00;99.90
9385;DHT22;4732;49.340;10.886;2024-03-02T13:40:59;14.00;99.90
9385;DHT22;4732;49.340;10.886;2024-03-02T13:43:26;14.00;99.90
9385;DHT22;4732;49.340;10.886;2024-03-02T13:45:52;14.00;99.90
9385;DHT22;4732;49.340;10.886;2024-03-02T13:48:19;14.00;99.90
9385;DHT22;4732;49.340;10.886;2024-03-02T13:50:45;14.00;99.90
9385;DHT22;4732;49.340;10.886;2024-03-02T13:53:11;13.90;99.90
9385;DHT22;4732;49.340;10.886;2024-03-02T13:55:37;13.90;99.90
9385;DHT22;4732;49.340;10.886;2024-03-02T13:58:03;13.80;99.90
9385;DHT22;4732;49.340;10.886;2024-03-02T14:00:29;13.80;99.90
9385;DHT22;4732;49.340;10.886;2024-03-02T14:02:55;14.00;99.90
9385;DHT22;4732;49.340;10.886;2024-03-02T14:05:21;14.00;99.90
9385;DHT22;4732;49.340;10.886;2024-03-02T14:07:46;14.00;99.90
9385;DHT22;4732;49.340;10.886;2024-03-02T14:10:12;14.00;99.90
9385;DHT22;4732;49.340;10.886;2024-03-02T14:12:38;13.90;99.90
9385;DHT22;4732;49.340;10.886;2024-03-02T14:15:03;13.90;99.90
9385;DHT22;4732;49.340;10.886;2024-03-02T14:17:29;13.80;99.90
9385;DHT22;4732;49.340;10.886;2024-03-02T14:19:57;13.80;99.90
9385;DHT22;4732;49.340;10.886;2024-03-02T14:22:24;13.90;99.90
9385;DHT22;4732;49.340;10.886;2024-03-02T14:24:50;13.90;99.90
9385;DHT22;4732;49.340;10.886;2024-03-02T14:27:15;13.80;99.90
9385;DHT22;4732;49.340;10.886;2024-03-02T14:29:42;13.80;99.90
9385;DHT22;4732;49.340;10.886;2024-03-02T14:32:08;13.90;99.90
9385;DHT22;4732;49.340;10.886;2024-03-02T14:34:34;13.80;99.90
9385;DHT22;4732;49.340;10.886;2024-03-02T14:36:59;13.70;99.90
9385;DHT22;4732;49.340;10.886;2024-03-02T14:39:26;13.70;99.90
9385;DHT22;4732;49.340;10.886;2024-03-02T14:41:52;13.70;99.90
9385;DHT22;4732;49.340;10.886;2024-03-02T14:44:17;13.70;99.90
9385;DHT22;4732;49.340;10.886;2024-03-02T14:46:43;13.60;99.90
9385;DHT22;4732;49.340;10.886;2024-03-02T14:49:09;13.40;99.90
9385;DHT22;4732;49.340;10.886;2024-03-02T14:51:36;13.20;99.90
9385;DHT22;4732;49.340;10.886;2024-03-02T14:54:01;13.10;99.90
9385;DHT22;4732;49.340;10.886;2024-03-02T14:56:28;13.10;99.90
9385;DHT22;4732;49.340;10.886;2024-03-02T14:58:53;12.90;99.90
9385;DHT22;4732;49.340;10.886;2024-03-02T15:01:19;12.90;99.90
9385;DHT22;4732;49.340;10.886;2024-03-02T15:03:48;13.00;99.90
9385;DHT22;4732;49.340;10.886;2024-03-02T15:06:14;13.20;99.90
9385;DHT22;4732;49.340;10.886;2024-03-02T15:08:39;13.10;99.90
9385;DHT22;4732;49.340;10.886;2024-03-02T15:11:07;13.10;99.90
9385;DHT22;4732;49.340;10.886;2024-03-02T15:13:32;13.20;99.90
9385;DHT22;4732;49.340;10.886;2024-03-02T15:15:59;13.10;99.90
9385;DHT22;4732;49.340;10.886;2024-03-02T15:18:25;13.10;99.90
9385;DHT22;4732;49.340;10.886;2024-03-02T15:20:51;13.20;99.90
9385;DHT22;4732;49.340;10.886;2024-03-02T15:23:16;13.10;99.90
9385;DHT22;4732;49.340;10.886;2024-03-02T15:25:42;13.00;99.90
9385;DHT22;4732;49.340;10.886;2024-03-02T15:28:07;13.00;99.90
9385;DHT22;4732;49.340;10.886;2024-03-02T15:30:33;13.00;99.90
9385;DHT22;4732;49.340;10.886;2024-03-02T15:32:59;13.00;99.90
9385;DHT22;4732;49.340;10.886;2024-03-02T15:35:24;13.00;99.90
9385;DHT22;4732;49.340;10.886;2024-03-02T15:37:50;12.90;99.90
9385;DHT22;4732;49.340;10.886;2024-03-02T15:40:15;13.00;99.90
9385;DHT22;4732;49.340;10.886;2024-03-02T15:42:41;12.90;99.90
9385;DHT22;4732;49.340;10.886;2024-03-02T15:45:07;12.90;99.90
9385;DHT22;4732;49.340;10.886;2024-03-02T15:47:33;12.90;99.90
9385;DHT22;4732;49.340;10.886;2024-03-02T15:49:59;12.90;99.90
9385;DHT22;4732;49.340;10.886;2024-03-02T15:52:24;12.90;99.90
9385;DHT22;4732;49.340;10.886;2024-03-02T15:54:50;12.90;99.90
9385;DHT22;4732;49.340;10.886;2024-03-02T15:57:16;12.80;99.90
9385;DHT22;4732;49.340;10.886;2024-03-02T15:59:43;12.80;99.90
9385;DHT22;4732;49.340;10.886;2024-03-02T16:02:09;12.90;99.90
9385;DHT22;4732;49.340;10.886;2024-03-02T16:04:34;12.80;99.90
9385;DHT22;4732;49.340;10.886;2024-03-02T16:07:00;12.60;99.90
9385;DHT22;4732;49.340;10.886;2024-03-02T16:09:26;12.60;99.90
9385;DHT22;4732;49.340;10.886;2024-03-02T16:11:51;12.50;99.90
9385;DHT22;4732;49.340;10.886;2024-03-02T16:14:17;12.40;99.90
9385;DHT22;4732;49.340;10.886;2024-03-02T16:16:43;12.40;99.90
9385;DHT22;4732;49.340;10.886;2024-03-02T16:19:10;12.20;99.90
9385;DHT22;4732;49.340;10.886;2024-03-02T16:21:35;11.70;99.90
9385;DHT22;4732;49.340;10.886;2024-03-02T16:24:01;11.70;99.90
9385;DHT22;4732;49.340;10.886;2024-03-02T16:26:26;11.70;99.90
9385;DHT22;4732;49.340;10.886;2024-03-02T16:28:52;11.50;99.90
9385;DHT22;4732;49.340;10.886;2024-03-02T16:31:17;11.40;99.90
9385;DHT22;4732;49.340;10.886;2024-03-02T16:33:44;11.30;99.90
9385;DHT22;4732;49.340;10.886;2024-03-02T16:36:09;11.20;99.90
9385;DHT22;4732;49.340;10.886;2024-03-02T16:38:36;11.10;99.90
9385;DHT22;4732;49.340;10.886;2024-03-02T16:41:02;10.80;99.90
9385;DHT22;4732;49.340;10.886;2024-03-02T16:43:27;10.60;99.90
9385;DHT22;4732;49.340;10.886;2024-03-02T16:45:53;10.30;99.90
9385;DHT22;4732;49.340;10.886;2024-03-02T16:48:18;10.20;99.90
9385;DHT22;4732;49.340;10.886;2024-03-02T16:50:44;10.00;99.90
9385;DHT22;4732;49.340;10.886;2024-03-02T16:53:09;9.90;99.90
9385;DHT22;4732;49.340;10.886;2024-03-02T16:55:35;9.70;99.90
9385;DHT22;4732;49.340;10.886;2024-03-02T16:58:00;9.70;99.90
9385;DHT22;4732;49.340;10.886;2024-03-02T17:00:26;9.60;99.90
9385;DHT22;4732;49.340;10.886;2024-03-02T17:02:51;9.50;99.90
9385;DHT22;4732;49.340;10.886;2024-03-02T17:05:20;9.40;99.90
9385;DHT22;4732;49.340;10.886;2024-03-02T17:07:47;9.50;99.90
9385;DHT22;4732;49.340;10.886;2024-03-02T17:10:13;9.40;99.90
9385;DHT22;4732;49.340;10.886;2024-03-02T17:12:38;9.40;99.90
9385;DHT22;4732;49.340;10.886;2024-03-02T17:15:04;9.30;99.90
9385;DHT22;4732;49.340;10.886;2024-03-02T17:17:30;9.30;99.90
9385;DHT22;4732;49.340;10.886;2024-03-02T17:19:56;9.40;99.90
9385;DHT22;4732;49.340;10.886;2024-03-02T17:22:22;9.10;99.90
9385;DHT22;4732;49.340;10.886;2024-03-02T17:24:49;9.10;99.90
9385;DHT22;4732;49.340;10.886;2024-03-02T17:27:14;9.00;99.90
9385;DHT22;4732;49.340;10.886;2024-03-02T17:29:40;8.90;99.90
9385;DHT22;4732;49.340;10.886;2024-03-02T17:32:05;8.90;99.90
9385;DHT22;4732;49.340;10.886;2024-03-02T17:34:31;8.90;99.90
9385;DHT22;4732;49.340;10.886;2024-03-02T17:36:57;8.80;99.90
9385;DHT22;4732;49.340;10.886;2024-03-02T17:39:22;8.70;99.90
9385;DHT22;4732;49.340;10.886;2024-03-02T17:41:48;8.60;99.90
9385;DHT22;4732;49.340;10.886;2024-03-02T17:44:13;8.60;99.90
9385;DHT22;4732;49.340;10.886;2024-03-02T17:46:39;8.50;99.90
9385;DHT22;4732;49.340;10.886;2024-03-02T17:49:04;8.40;99.90
9385;DHT22;4732;49.340;10.886;2024-03-02T17:51:30;8.40;99.90
9385;DHT22;4732;49.340;10.886;2024-03-02T17:53:55;8.50;99.90
9385;DHT22;4732;49.340;10.886;2024-03-02T17:56:21;8.40;99.90
9385;DHT22;4732;49.340;10.886;2024-03-02T17:58:46;8.30;99.90
9385;DHT22;4732;49.340;10.886;2024-03-02T18:01:12;8.20;99.90
9385;DHT22;4732;49.340;10.886;2024-03-02T18:03:38;8.10;99.90
9385;DHT22;4732;49.340;10.886;2024-03-02T18:06:04;8.10;99.90
9385;DHT22;4732;49.340;10.886;2024-03-02T18:08:30;8.00;99.90
9385;DHT22;4732;49.340;10.886;2024-03-02T18:10:55;7.90;99.90
9385;DHT22;4732;49.340;10.886;2024-03-02T18:13:21;7.80;99.90
9385;DHT22;4732;49.340;10.886;2024-03-02T18:15:47;7.70;99.90
9385;DHT22;4732;49.340;10.886;2024-03-02T18:18:12;7.70;99.90
9385;DHT22;4732;49.340;10.886;2024-03-02T18:20:38;7.60;99.90
9385;DHT22;4732;49.340;10.886;2024-03-02T18:23:04;7.50;99.90
9385;DHT22;4732;49.340;10.886;2024-03-02T18:25:30;7.50;99.90
9385;DHT22;4732;49.340;10.886;2024-03-02T18:27:56;7.40;99.90
9385;DHT22;4732;49.340;10.886;2024-03-02T18:30:21;7.30;99.90
9385;DHT22;4732;49.340;10.886;2024-03-02T18:32:47;7.30;99.90
9385;DHT22;4732;49.340;10.886;2024-03-02T18:35:12;7.30;99.90
9385;DHT22;4732;49.340;10.886;2024-03-02T18:37:38;7.20;99.90
9385;DHT22;4732;49.340;10.886;2024-03-02T18:40:04;7.20;99.90
9385;DHT22;4732;49.340;10.886;2024-03-02T18:42:32;7.10;99.90
9385;DHT22;4732;49.340;10.886;2024-03-02T18:44:58;7.00;99.90
9385;DHT22;4732;49.340;10.886;2024-03-02T18:47:23;6.90;99.90
9385;DHT22;4732;49.340;10.886;2024-03-02T18:49:49;6.80;99.90
9385;DHT22;4732;49.340;10.886;2024-03-02T18:52:15;6.70;99.90
9385;DHT22;4732;49.340;10.886;2024-03-02T18:54:41;6.70;99.90
9385;DHT22;4732;49.340;10.886;2024-03-02T18:57:07;6.60;99.90
9385;DHT22;4732;49.340;10.886;2024-03-02T18:59:32;6.60;99.90
9385;DHT22;4732;49.340;10.886;2024-03-02T19:01:58;6.60;99.90
9385;DHT22;4732;49.340;10.886;2024-03-02T19:04:23;6.50;99.90
9385;DHT22;4732;49.340;10.886;2024-03-02T19:06:49;6.50;99.90
9385;DHT22;4732;49.340;10.886;2024-03-02T19:09:14;6.50;99.90
9385;DHT22;4732;49.340;10.886;2024-03-02T19:11:40;6.40;99.90
9385;DHT22;4732;49.340;10.886;2024-03-02T19:14:06;6.40;99.90
9385;DHT22;4732;49.340;10.886;2024-03-02T19:16:32;6.20;99.90
9385;DHT22;4732;49.340;10.886;2024-03-02T19:18:59;6.10;99.90
9385;DHT22;4732;49.340;10.886;2024-03-02T19:21:24;5.90;99.90
9385;DHT22;4732;49.340;10.886;2024-03-02T19:23:49;5.60;99.90
9385;DHT22;4732;49.340;10.886;2024-03-02T19:26:15;5.50;99.90
9385;DHT22;4732;49.340;10.886;2024-03-02T19:28:44;5.50;99.90
9385;DHT22;4732;49.340;10.886;2024-03-02T19:31:10;5.40;99.90
9385;DHT22;4732;49.340;10.886;2024-03-02T19:33:35;5.40;99.90
9385;DHT22;4732;49.340;10.886;2024-03-02T19:36:01;5.40;99.90
9385;DHT22;4732;49.340;10.886;2024-03-02T19:38:28;5.40;99.90
9385;DHT22;4732;49.340;10.886;2024-03-02T19:40:54;5.30;99.90
9385;DHT22;4732;49.340;10.886;2024-03-02T19:43:19;5.30;99.90
9385;DHT22;4732;49.340;10.886;2024-03-02T19:45:46;5.30;99.90
9385;DHT22;4732;49.340;10.886;2024-03-02T19:48:11;5.30;99.90
9385;DHT22;4732;49.340;10.886;2024-03-02T19:50:39;5.30;99.90
9385;DHT22;4732;49.340;10.886;2024-03-02T19:53:07;5.30;99.90
9385;DHT22;4732;49.340;10.886;2024-03-02T19:55:32;5.30;99.90
9385;DHT22;4732;49.340;10.886;2024-03-02T19:57:58;5.40;99.90
9385;DHT22;4732;49.340;10.886;2024-03-02T20:00:23;5.30;99.90
9385;DHT22;4732;49.340;10.886;2024-03-02T20:02:49;5.20;99.90